Time;durP1;ratioP1;P1;durP2;ratioP2;P2;SDS_P1;SDS_P2;PMS_P1;PMS_P2;Temp;Humidity;BMP_temperature;BMP_pressure;BME280_temperature;BME280_humidity;BME280_pressure;Samples;Min_cycle;Max_cycle;Signal;HPM_P1;HPM_P2
2021/10/11 00:01:14;;;;;;;59.70;30.32;;;;;;;1.94;71.24;101474.40;1704080;84;21019;-81
2021/10/11 00:03:40;;;;;;;69.67;31.97;;;;;;;1.91;71.33;101467.54;1704116;84;21118;-81
2021/10/11 00:06:06;;;;;;;57.83;29.57;;;;;;;1.83;71.39;101468.94;1703892;84;20911;-82
2021/10/11 00:08:32;;;;;;;74.05;35.33;;;;;;;1.81;71.48;101472.95;1704149;84;21070;-81
2021/10/11 00:10:58;;;;;;;65.35;34.53;;;;;;;1.78;71.52;101478.86;1703762;84;21034;-81
2021/10/11 00:13:24;;;;;;;65.92;32.80;;;;;;;1.72;71.58;101477.90;1703864;84;21054;-81
2021/10/11 00:15:50;;;;;;;72.10;31.35;;;;;;;1.66;71.60;101472.97;1703956;84;21162;-81
2021/10/11 00:18:16;;;;;;;59.27;31.20;;;;;;;1.59;71.64;101467.67;1703595;84;20984;-81
2021/10/11 00:20:42;;;;;;;56.02;28.23;;;;;;;1.53;71.69;101466.72;1704142;84;20994;-81
2021/10/11 00:23:10;;;;;;;54.70;27.00;;;;;;;1.45;71.74;101465.36;1704295;84;21011;-81
2021/10/11 00:25:36;;;;;;;61.85;28.67;;;;;;;1.39;71.83;101463.08;1704056;84;21066;-81
2021/10/11 00:28:04;;;;;;;53.25;25.70;;;;;;;1.40;71.91;101459.53;1703585;84;21110;-81
2021/10/11 00:30:30;;;;;;;52.53;26.97;;;;;;;1.40;72.02;101456.05;1703952;84;21070;-81
2021/10/11 00:32:56;;;;;;;57.48;27.32;;;;;;;1.35;72.05;101452.36;1704099;84;21047;-81
2021/10/11 00:35:22;;;;;;;58.15;28.73;;;;;;;1.37;72.17;101458.36;1704004;84;21007;-81
2021/10/11 00:37:48;;;;;;;57.67;30.97;;;;;;;1.39;72.23;101452.57;1704022;84;21022;-81
2021/10/11 00:40:14;;;;;;;63.30;30.43;;;;;;;1.38;72.34;101449.55;1703891;84;21150;-81
2021/10/11 00:42:40;;;;;;;58.92;30.43;;;;;;;1.37;72.42;101456.23;1704210;84;21586;-81
2021/10/11 00:45:07;;;;;;;58.80;30.08;;;;;;;1.34;72.46;101448.48;1703463;82;21540;-81
2021/10/11 00:47:33;;;;;;;66.10;31.87;;;;;;;1.28;72.53;101449.69;1702499;84;21066;-81
2021/10/11 00:49:59;;;;;;;65.70;30.60;;;;;;;1.24;72.58;101445.53;1702490;84;21038;-81
2021/10/11 00:52:25;;;;;;;67.30;32.58;;;;;;;1.19;72.61;101439.70;1702448;84;21739;-81
2021/10/11 00:54:52;;;;;;;63.50;31.33;;;;;;;1.12;72.64;101432.24;1702325;84;21043;-81
2021/10/11 00:57:18;;;;;;;60.50;30.40;;;;;;;1.10;72.72;101436.71;1702421;84;21110;-81
2021/10/11 00:59:44;;;;;;;54.08;28.23;;;;;;;1.10;72.78;101440.19;1702528;84;21003;-81
2021/10/11 01:02:10;;;;;;;53.05;27.37;;;;;;;1.08;72.83;101444.70;1702484;84;21503;-81
2021/10/11 01:04:36;;;;;;;52.25;28.20;;;;;;;1.07;72.90;101436.42;1702741;84;22197;-81
2021/10/11 01:07:03;;;;;;;63.05;32.98;;;;;;;1.08;73.00;101434.19;1702573;84;20994;-81
2021/10/11 01:09:29;;;;;;;76.00;37.70;;;;;;;1.10;73.05;101432.31;1702557;84;21026;-81
2021/10/11 01:11:55;;;;;;;99.60;43.98;;;;;;;1.16;73.13;101428.52;1702363;84;21330;-81
2021/10/11 01:14:21;;;;;;;77.78;38.88;;;;;;;1.21;73.17;101423.84;1702604;84;21003;-81
2021/10/11 01:16:47;;;;;;;71.37;35.48;;;;;;;1.20;73.23;101420.36;1702526;84;21201;-81
2021/10/11 01:19:14;;;;;;;70.52;33.23;;;;;;;1.17;73.28;101415.28;1702189;84;21495;-81
2021/10/11 01:21:40;;;;;;;66.70;33.90;;;;;;;1.14;73.33;101410.20;1702656;84;21597;-81
2021/10/11 01:24:06;;;;;;;68.80;33.60;;;;;;;1.14;73.41;101404.95;1702386;84;21031;-81
2021/10/11 01:26:39;;;;;;;68.40;33.08;;;;;;;1.12;73.49;101393.69;1702446;84;21070;-81
2021/10/11 01:29:05;;;;;;;60.92;30.85;;;;;;;1.12;73.55;101392.38;1702208;84;21571;-81
2021/10/11 01:31:31;;;;;;;62.05;29.85;;;;;;;1.09;73.59;101384.64;1702330;84;20998;-81
2021/10/11 01:33:58;;;;;;;57.33;29.45;;;;;;;1.06;73.67;101383.50;1702449;84;21014;-81
2021/10/11 01:36:24;;;;;;;52.13;27.15;;;;;;;1.03;73.67;101377.58;1702504;84;20999;-81
2021/10/11 01:38:56;;;;;;;53.70;27.30;;;;;;;1.06;73.73;101374.31;1702846;84;21031;-81
2021/10/11 01:41:22;;;;;;;57.60;29.35;;;;;;;1.09;73.77;101385.14;1701796;84;21190;-81
2021/10/11 01:43:48;;;;;;;59.18;30.48;;;;;;;1.09;73.83;101380.70;1702427;83;21597;-81
2021/10/11 01:46:15;;;;;;;61.85;31.52;;;;;;;1.10;73.88;101377.16;1702264;84;21003;-81
2021/10/11 01:48:41;;;;;;;58.50;30.97;;;;;;;1.11;73.92;101370.13;1702104;84;21515;-81
2021/10/11 01:51:07;;;;;;;65.75;31.10;;;;;;;1.11;73.98;101360.47;1702468;84;21015;-81
2021/10/11 01:53:33;;;;;;;64.07;29.77;;;;;;;1.13;74.04;101357.27;1702352;84;21146;-81
2021/10/11 01:55:59;;;;;;;65.22;31.82;;;;;;;1.17;74.07;101363.20;1702629;84;21125;-81
2021/10/11 01:58:25;;;;;;;65.72;32.60;;;;;;;1.17;74.11;101358.80;1702444;84;21586;-81
2021/10/11 02:00:51;;;;;;;57.43;31.40;;;;;;;1.16;74.14;101361.53;1702646;84;21014;-81
2021/10/11 02:03:17;;;;;;;58.28;28.40;;;;;;;1.14;74.15;101362.06;1702639;84;20999;-81
2021/10/11 02:05:43;;;;;;;54.15;29.00;;;;;;;1.13;74.18;101365.16;1702659;84;21152;-81
2021/10/11 02:08:09;;;;;;;59.08;29.35;;;;;;;1.11;74.20;101365.72;1702644;84;21007;-81
2021/10/11 02:10:35;;;;;;;59.77;29.82;;;;;;;1.06;74.23;101361.64;1702384;84;21031;-81
2021/10/11 02:13:01;;;;;;;57.80;26.90;;;;;;;1.08;74.29;101355.39;1702644;84;21316;-81
2021/10/11 02:15:27;;;;;;;63.98;28.73;;;;;;;1.12;74.29;101353.44;1702086;84;21109;-81
2021/10/11 02:17:53;;;;;;;60.65;29.00;;;;;;;1.16;74.33;101346.59;1702819;84;21191;-81
2021/10/11 02:20:19;;;;;;;58.90;28.73;;;;;;;1.24;74.37;101350.95;1702121;84;21011;-81
2021/10/11 02:22:45;;;;;;;60.17;28.15;;;;;;;1.23;74.39;101349.25;1702625;84;21094;-80
2021/10/11 02:25:11;;;;;;;67.72;28.20;;;;;;;1.22;74.43;101350.20;1702583;84;20987;-81
2021/10/11 02:27:39;;;;;;;60.70;28.23;;;;;;;1.21;74.48;101348.51;1702742;84;21054;-81
2021/10/11 02:30:06;;;;;;;55.45;29.42;;;;;;;1.22;74.51;101348.05;1702743;84;21766;-81
2021/10/11 02:32:32;;;;;;;58.63;27.15;;;;;;;1.24;74.54;101352.27;1702474;84;21007;-81
2021/10/11 02:34:58;;;;;;;67.92;29.12;;;;;;;1.23;74.57;101349.25;1702753;84;20915;-81
2021/10/11 02:37:24;;;;;;;52.65;24.30;;;;;;;1.22;74.59;101347.58;1702566;84;21014;-81
2021/10/11 02:39:53;;;;;;;45.70;22.98;;;;;;;1.21;74.59;101348.97;1702483;84;21062;-81
2021/10/11 02:42:19;;;;;;;52.13;20.32;;;;;;;1.18;74.60;101347.38;1702484;84;21086;-81
2021/10/11 02:44:45;;;;;;;45.35;20.60;;;;;;;1.18;74.61;101340.80;1702268;82;21477;-81
2021/10/11 02:47:11;;;;;;;42.98;20.55;;;;;;;1.19;74.61;101341.66;1702989;84;21018;-81
2021/10/11 02:49:37;;;;;;;48.17;24.05;;;;;;;1.17;74.62;101324.66;1703729;84;21008;-81
2021/10/11 02:52:04;;;;;;;119.57;42.93;;;;;;;1.15;74.65;101319.97;1704258;84;21578;-81
2021/10/11 02:54:30;;;;;;;106.10;42.17;;;;;;;1.14;74.71;101321.36;1703960;84;21235;-81
2021/10/11 02:56:56;;;;;;;87.10;37.45;;;;;;;1.18;74.76;101322.41;1704106;84;21063;-81
2021/10/11 02:59:22;;;;;;;97.70;39.75;;;;;;;1.23;74.82;101316.91;1704044;84;20990;-81
2021/10/11 03:01:48;;;;;;;81.25;35.85;;;;;;;1.18;74.83;101314.53;1704201;84;21491;-81
2021/10/11 03:04:14;;;;;;;83.85;39.88;;;;;;;1.19;74.88;101318.02;1704099;84;21003;-81
2021/10/11 03:06:40;;;;;;;73.75;32.67;;;;;;;1.18;74.91;101311.91;1703703;84;21691;-81
2021/10/11 03:09:06;;;;;;;59.35;29.05;;;;;;;1.16;74.91;101315.07;1704145;84;21074;-81
2021/10/11 03:11:32;;;;;;;59.08;28.90;;;;;;;1.16;74.93;101319.50;1704011;84;21035;-81
2021/10/11 03:13:58;;;;;;;60.78;27.67;;;;;;;1.13;74.97;101317.88;1704285;84;21413;-81
2021/10/11 03:16:24;;;;;;;65.42;28.23;;;;;;;1.11;74.96;101315.82;1703952;84;21010;-81
2021/10/11 03:18:50;;;;;;;60.83;27.85;;;;;;;1.06;74.97;101313.05;1704061;84;21158;-81
2021/10/11 03:21:18;;;;;;;65.52;29.27;;;;;;;1.00;74.98;101305.07;1703660;84;21515;-81
2021/10/11 03:23:50;;;;;;;86.92;33.90;;;;;;;0.99;75.02;101302.05;1704174;84;20991;-81
2021/10/11 03:26:18;;;;;;;92.42;36.30;;;;;;;1.03;75.06;101298.33;1704097;84;21018;-81
2021/10/11 03:28:44;;;;;;;81.90;34.18;;;;;;;1.06;75.11;101291.58;1703967;84;21493;-81
2021/10/11 03:31:10;;;;;;;81.70;34.53;;;;;;;1.09;75.14;101294.03;1704121;84;21827;-81
2021/10/11 03:33:36;;;;;;;77.75;32.80;;;;;;;1.06;75.18;101288.95;1703960;84;21003;-81
2021/10/11 03:36:03;;;;;;;84.00;32.50;;;;;;;1.05;75.24;101287.75;1703949;84;21102;-81
2021/10/11 03:38:30;;;;;;;91.80;37.75;;;;;;;0.98;75.24;101281.55;1703916;84;21075;-81
2021/10/11 03:40:56;;;;;;;83.60;36.42;;;;;;;0.91;75.28;101273.63;1703971;84;21046;-81
2021/10/11 03:43:22;;;;;;;82.30;34.65;;;;;;;0.89;75.31;101275.94;1704009;82;21519;-81
2021/10/11 03:45:48;;;;;;;82.97;34.35;;;;;;;0.87;75.35;101271.26;1703837;84;21011;-81
2021/10/11 03:48:14;;;;;;;86.00;34.30;;;;;;;0.85;75.36;101266.55;1702970;84;21061;-81
2021/10/11 03:50:41;;;;;;;94.47;38.35;;;;;;;0.84;75.39;101259.63;1701978;84;21059;-81
2021/10/11 03:53:07;;;;;;;88.80;35.35;;;;;;;0.82;75.41;101256.22;1702740;84;21547;-81
2021/10/11 03:55:33;;;;;;;101.42;47.05;;;;;;;0.85;75.42;101253.41;1702556;84;21173;-81
2021/10/11 03:57:59;;;;;;;90.67;39.20;;;;;;;0.88;75.45;101250.64;1702682;84;21007;-81
2021/10/11 04:00:25;;;;;;;88.42;36.53;;;;;;;0.90;75.50;101248.77;1702438;84;21023;-81
2021/10/11 04:02:51;;;;;;;85.03;32.98;;;;;;;0.90;75.54;101246.98;1702798;84;21575;-81
2021/10/11 04:05:17;;;;;;;76.53;35.38;;;;;;;0.93;75.57;101245.95;1702655;84;21482;-81
2021/10/11 04:07:46;;;;;;;87.12;35.50;;;;;;;0.95;75.58;101241.48;1702558;84;20955;-81
2021/10/11 04:10:12;;;;;;;78.17;34.60;;;;;;;0.92;75.63;101238.55;1702571;84;21138;-81
2021/10/11 04:12:39;;;;;;;84.58;37.38;;;;;;;0.84;75.65;101236.00;1702365;84;21066;-81
2021/10/11 04:15:07;;;;;;;79.10;35.55;;;;;;;0.78;75.68;101224.50;1702558;84;21080;-81
2021/10/11 04:17:41;;;;;;;79.72;34.85;;;;;;;0.78;75.70;101228.45;1676424;84;21014;-81
2021/10/11 04:20:07;;;;;;;75.15;34.67;;;;;;;0.77;75.72;101217.59;1701144;84;21108;-81
2021/10/11 04:22:33;;;;;;;65.37;32.30;;;;;;;0.75;75.72;101219.44;1701783;84;21635;-81
2021/10/11 04:25:00;;;;;;;62.03;30.52;;;;;;;0.74;75.75;101218.59;1702156;84;21034;-81
2021/10/11 04:27:26;;;;;;;61.53;29.67;;;;;;;0.72;75.78;101215.67;1702524;84;21047;-81
2021/10/11 04:29:52;;;;;;;62.15;30.77;;;;;;;0.72;75.82;101220.92;1702323;84;21038;-81
2021/10/11 04:32:18;;;;;;;62.40;31.25;;;;;;;0.74;75.85;101227.77;1702603;84;21144;-81
2021/10/11 04:34:44;;;;;;;71.40;34.20;;;;;;;0.79;75.89;101228.83;1702468;84;21760;-81
2021/10/11 04:37:10;;;;;;;58.30;30.77;;;;;;;0.83;75.89;101222.48;1702414;84;21007;-81
2021/10/11 04:39:36;;;;;;;64.70;33.90;;;;;;;0.86;75.95;101223.61;1702630;84;21042;-81
2021/10/11 04:42:02;;;;;;;61.45;31.40;;;;;;;0.86;75.98;101223.61;1702534;84;20911;-81
2021/10/11 04:44:28;;;;;;;65.60;32.67;;;;;;;0.88;76.02;101227.83;1702376;83;21478;-81
2021/10/11 04:46:55;;;;;;;66.50;31.50;;;;;;;0.88;76.04;101225.70;1702592;84;20999;-81
2021/10/11 04:49:21;;;;;;;60.92;31.40;;;;;;;0.84;76.05;101214.99;1702126;84;21046;-81
2021/10/11 04:51:47;;;;;;;60.15;31.37;;;;;;;0.82;76.07;101222.09;1702017;84;21031;-81
2021/10/11 04:54:14;;;;;;;55.17;27.40;;;;;;;0.82;76.08;101219.47;1702526;84;21075;-81
2021/10/11 04:56:41;;;;;;;56.00;30.23;;;;;;;0.83;76.14;101214.60;1702519;84;21098;-81
2021/10/11 04:59:08;;;;;;;59.70;28.25;;;;;;;0.81;76.17;101207.30;1701943;84;21479;-81
2021/10/11 05:01:34;;;;;;;53.80;26.17;;;;;;;0.85;76.18;101205.70;1702501;84;21095;-81
2021/10/11 05:04:00;;;;;;;47.88;25.70;;;;;;;0.88;76.21;101203.38;1702429;84;21353;-81
2021/10/11 05:06:26;;;;;;;55.15;27.37;;;;;;;0.91;76.27;101202.73;1702464;84;21054;-81
2021/10/11 05:08:52;;;;;;;51.45;28.73;;;;;;;0.92;76.30;101191.74;1702306;84;21570;-81
2021/10/11 05:11:18;;;;;;;49.63;26.90;;;;;;;0.95;76.35;101188.97;1702553;84;21850;-81
2021/10/11 05:13:44;;;;;;;50.90;27.17;;;;;;;0.97;76.39;101189.25;1702555;84;20998;-81
2021/10/11 05:16:11;;;;;;;52.30;27.00;;;;;;;0.99;76.43;101187.36;1702542;84;21030;-81
2021/10/11 05:18:37;;;;;;;53.92;26.55;;;;;;;1.04;76.47;101183.16;1702681;84;21558;-81
2021/10/11 05:21:04;;;;;;;59.70;29.23;;;;;;;1.07;76.49;101184.29;1702521;84;21746;-81
2021/10/11 05:23:30;;;;;;;53.30;29.05;;;;;;;1.13;76.53;101185.23;1702577;84;21085;-81
2021/10/11 05:25:57;;;;;;;53.70;29.30;;;;;;;1.19;76.55;101187.52;1702263;84;21074;-81
2021/10/11 05:28:23;;;;;;;57.65;27.58;;;;;;;1.22;76.58;101187.34;1702435;84;21063;-81
2021/10/11 05:30:49;;;;;;;52.98;28.17;;;;;;;1.26;76.59;101182.28;1702477;84;21094;-81
2021/10/11 05:33:19;;;;;;;43.52;26.45;;;;;;;1.29;76.61;101176.84;1702733;84;21495;-81
2021/10/11 05:35:43;;;;;;;51.05;26.55;;;;;;;1.35;76.62;101177.78;1702191;84;21022;-81
2021/10/11 05:38:09;;;;;;;47.90;25.05;;;;;;;1.41;76.63;101182.65;1702384;84;21530;-81
2021/10/11 05:40:36;;;;;;;43.20;24.40;;;;;;;1.47;76.63;101186.25;1702372;84;38591;-81
2021/10/11 05:43:03;;;;;;;50.17;24.15;;;;;;;1.56;76.65;101185.29;1693837;84;20928;-82
2021/10/11 05:45:29;;;;;;;52.83;23.95;;;;;;;1.62;76.67;101184.94;1689319;84;21134;-83
2021/10/11 05:47:55;;;;;;;46.08;23.83;;;;;;;1.69;76.68;101183.63;1681574;84;21100;-82
2021/10/11 05:50:21;;;;;;;44.50;25.10;;;;;;;1.77;76.68;101185.29;1701439;83;21060;-83
2021/10/11 05:52:47;;;;;;;44.63;23.52;;;;;;;1.86;76.70;101178.17;1699242;84;21024;-83
2021/10/11 05:55:13;;;;;;;43.38;23.67;;;;;;;1.96;76.70;101181.91;1698803;84;21035;-83
2021/10/11 05:57:41;;;;;;;40.48;23.10;;;;;;;2.06;76.72;101180.39;1699024;84;21906;-82
2021/10/11 06:00:08;;;;;;;43.23;22.22;;;;;;;2.21;76.69;101179.43;1699165;84;21358;-83
2021/10/11 06:02:34;;;;;;;45.52;21.95;;;;;;;2.63;76.49;101181.55;1699476;84;21037;-83
2021/10/11 06:05:01;;;;;;;49.85;23.83;;;;;;;2.91;76.42;101181.42;1699121;84;21036;-83
2021/10/11 06:07:28;;;;;;;44.83;24.00;;;;;;;3.14;76.40;101181.19;1699328;84;21564;-83
2021/10/11 06:09:55;;;;;;;49.38;24.00;;;;;;;3.42;76.41;101180.52;1699139;84;21809;-83
2021/10/11 06:12:21;;;;;;;43.45;25.15;;;;;;;3.67;76.43;101181.00;1699335;84;21068;-83
2021/10/11 06:14:47;;;;;;;48.70;25.60;;;;;;;3.99;76.39;101184.86;1699671;84;20969;-83
2021/10/11 06:17:13;;;;;;;43.78;21.82;;;;;;;4.29;76.36;101189.73;1699443;84;21565;-83
2021/10/11 06:19:39;;;;;;;41.10;20.82;;;;;;;4.59;76.31;101195.08;1699502;84;21024;-83
2021/10/11 06:22:05;;;;;;;33.88;20.25;;;;;;;4.80;76.27;101198.31;1699237;84;21032;-83
2021/10/11 06:24:32;;;;;;;38.90;19.75;;;;;;;5.10;76.22;101194.34;1699140;84;21512;-83
2021/10/11 06:26:58;;;;;;;39.27;21.15;;;;;;;5.39;76.15;101192.95;1698937;84;21015;-83
2021/10/11 06:29:24;;;;;;;31.70;19.73;;;;;;;5.66;76.10;101192.18;1699515;84;21072;-83
2021/10/11 06:31:50;;;;;;;36.05;18.55;;;;;;;5.92;76.00;101197.62;1699466;84;21021;-83
2021/10/11 06:34:16;;;;;;;33.65;15.72;;;;;;;6.13;75.86;101200.38;1699318;84;21170;-83
2021/10/11 06:36:42;;;;;;;37.58;16.50;;;;;;;6.32;75.72;101187.36;1699596;84;21116;-83
2021/10/11 06:39:08;;;;;;;26.68;16.62;;;;;;;6.65;75.56;101193.55;1699268;84;21080;-83
2021/10/11 06:41:34;;;;;;;30.45;14.90;;;;;;;6.96;75.34;101179.45;1699490;84;21060;-83
2021/10/11 06:44:01;;;;;;;32.20;14.85;;;;;;;7.36;75.18;101188.38;1699602;83;21481;-83
2021/10/11 06:46:27;;;;;;;31.90;15.60;;;;;;;7.61;74.98;101186.28;1699439;84;21840;-83
2021/10/11 06:48:53;;;;;;;32.40;18.37;;;;;;;7.75;74.76;101186.78;1695082;83;21062;-83
2021/10/11 06:51:19;;;;;;;26.62;17.67;;;;;;;7.91;74.57;101180.52;1691302;84;21100;-83
2021/10/11 06:53:45;;;;;;;36.28;18.05;;;;;;;8.13;74.38;101180.78;1691466;84;21029;-83
2021/10/11 06:56:11;;;;;;;30.43;18.48;;;;;;;8.17;74.15;101182.20;1691223;84;21525;-84
2021/10/11 06:58:37;;;;;;;31.30;18.07;;;;;;;8.28;73.96;101187.44;1691405;84;21256;-84
2021/10/11 07:01:03;;;;;;;26.07;15.68;;;;;;;8.44;73.68;101180.29;1691189;84;21065;-84
2021/10/11 07:03:30;;;;;;;23.18;15.45;;;;;;;8.33;73.26;101188.38;1691128;84;21634;-84
2021/10/11 07:06:04;;;;;;;28.52;16.90;;;;;;;7.94;72.88;101188.69;1691311;84;21064;-84
2021/10/11 07:08:30;;;;;;;34.45;16.97;;;;;;;7.62;72.60;101187.98;1691290;84;21088;-84
2021/10/11 07:10:56;;;;;;;33.30;16.77;;;;;;;7.34;72.38;101179.72;1691401;84;21548;-84
2021/10/11 07:13:22;;;;;;;26.65;16.73;;;;;;;7.21;72.21;101181.73;1689885;84;21003;-83
2021/10/11 07:15:50;;;;;;;28.70;17.02;;;;;;;7.14;72.03;101187.20;1706252;84;21079;-83
2021/10/11 07:18:16;;;;;;;29.40;17.12;;;;;;;7.00;71.83;101196.28;1706162;84;21115;-84
2021/10/11 07:20:45;;;;;;;32.53;17.50;;;;;;;6.85;71.63;101202.87;1676506;84;21081;-83
2021/10/11 07:23:14;;;;;;;31.07;18.52;;;;;;;6.79;71.51;101206.52;1677373;85;21138;-83
2021/10/11 07:25:41;;;;;;;34.63;17.52;;;;;;;6.89;71.37;101202.13;1705074;84;21092;-84
2021/10/11 07:28:07;;;;;;;38.23;19.45;;;;;;;6.93;71.28;101192.97;1677103;84;21101;-84
2021/10/11 07:30:33;;;;;;;30.55;16.82;;;;;;;7.01;71.17;101191.82;1722804;82;21498;-83
2021/10/11 07:33:00;;;;;;;25.80;16.00;;;;;;;7.00;71.07;101188.84;1707811;82;22129;-82
2021/10/11 07:35:27;;;;;;;28.12;16.90;;;;;;;7.01;71.00;101190.50;1718226;82;21143;-83
2021/10/11 07:37:53;;;;;;;32.80;18.95;;;;;;;7.02;70.91;101194.84;1709284;82;21168;-83
2021/10/11 07:40:21;;;;;;;33.28;16.55;;;;;;;7.06;70.83;101188.31;1684477;84;21477;-82
2021/10/11 07:42:47;;;;;;;36.20;16.07;;;;;;;7.11;70.75;101176.82;1667917;85;21050;-83
2021/10/11 07:45:13;;;;;;;24.65;15.88;;;;;;;7.18;70.70;101179.83;1705360;82;21043;-83
2021/10/11 07:47:39;;;;;;;28.67;16.70;;;;;;;7.22;70.61;101170.61;1672171;85;21770;-83
2021/10/11 07:50:06;;;;;;;25.80;16.25;;;;;;;7.23;70.51;101161.21;1679700;84;21050;-83
2021/10/11 07:52:32;;;;;;;27.75;15.32;;;;;;;7.23;70.45;101161.21;1679704;84;21341;-83
2021/10/11 07:54:58;;;;;;;26.75;15.85;;;;;;;7.28;70.39;101164.30;1681730;84;21070;-84
2021/10/11 07:57:24;;;;;;;25.95;14.90;;;;;;;7.33;70.33;101180.69;1692151;84;21064;-82
2021/10/11 07:59:50;;;;;;;23.73;15.40;;;;;;;7.37;70.24;101168.84;1699511;82;21169;-84
2021/10/11 08:02:16;;;;;;;25.52;16.30;;;;;;;7.40;70.17;101163.75;1698158;84;21008;-83
2021/10/11 08:04:42;;;;;;;31.45;16.17;;;;;;;7.40;70.04;101162.42;1695955;84;21255;-83
2021/10/11 08:07:08;;;;;;;30.45;14.95;;;;;;;7.38;69.98;101151.96;1691590;84;21075;-84
2021/10/11 08:09:34;;;;;;;24.67;15.00;;;;;;;7.41;69.91;101153.50;1677907;84;21091;-84
2021/10/11 08:12:00;;;;;;;30.75;14.93;;;;;;;7.44;69.87;101155.41;1688623;84;21192;-84
2021/10/11 08:14:26;;;;;;;25.72;14.98;;;;;;;7.47;69.79;101148.51;1687961;84;21519;-84
2021/10/11 08:16:52;;;;;;;30.15;15.88;;;;;;;7.52;69.71;101144.98;1695796;82;21083;-83
2021/10/11 08:19:18;;;;;;;27.35;16.48;;;;;;;7.58;69.66;101144.09;1694368;83;21420;-83
2021/10/11 08:21:44;;;;;;;33.28;15.63;;;;;;;7.64;69.59;101143.55;1676791;84;21036;-82
2021/10/11 08:24:12;;;;;;;27.58;14.53;;;;;;;7.71;69.56;101144.69;1690947;84;21261;-83
2021/10/11 08:26:38;;;;;;;30.72;15.65;;;;;;;7.75;69.52;101143.46;1677204;84;21579;-83
2021/10/11 08:29:04;;;;;;;28.40;16.25;;;;;;;7.82;69.48;101139.30;1685641;84;21070;-82
2021/10/11 08:31:32;;;;;;;24.67;14.78;;;;;;;7.88;69.42;101133.47;1679786;84;21035;-83
2021/10/11 08:33:59;;;;;;;26.05;15.55;;;;;;;7.94;69.39;101126.28;1675412;84;21642;-82
2021/10/11 08:36:25;;;;;;;29.32;14.20;;;;;;;8.00;69.29;101130.56;1698328;83;21136;-80
2021/10/11 08:38:51;;;;;;;40.98;16.48;;;;;;;8.04;69.23;101127.99;1694111;84;21051;-80
2021/10/11 08:41:17;;;;;;;21.68;12.80;;;;;;;8.07;69.18;101122.89;1683708;84;21015;-79
2021/10/11 08:43:44;;;;;;;25.77;14.40;;;;;;;8.11;69.11;101126.95;1686145;83;21076;-79
2021/10/11 08:46:10;;;;;;;24.65;15.18;;;;;;;8.08;69.03;101128.56;1698058;83;21059;-80
2021/10/11 08:48:36;;;;;;;26.10;15.83;;;;;;;8.07;68.97;101133.52;1700935;84;21182;-81
2021/10/11 08:51:04;;;;;;;29.48;16.02;;;;;;;8.12;68.92;101127.80;1683968;84;21067;-80
2021/10/11 08:53:30;;;;;;;21.93;16.00;;;;;;;8.14;68.89;101125.35;1686672;84;21670;-81
2021/10/11 08:55:56;;;;;;;26.73;15.58;;;;;;;8.22;68.81;101129.98;1683545;84;21094;-80
2021/10/11 08:58:22;;;;;;;23.55;15.25;;;;;;;8.30;68.76;101137.64;1690929;84;21107;-80
2021/10/11 09:00:48;;;;;;;24.82;14.40;;;;;;;8.34;68.68;101132.89;1687531;84;21139;-80
2021/10/11 09:03:19;;;;;;;23.38;15.25;;;;;;;8.41;68.65;101139.34;1697958;83;21170;-81
2021/10/11 09:05:47;;;;;;;24.02;14.10;;;;;;;8.49;68.62;101128.86;1696602;84;21031;-81
2021/10/11 09:08:16;;;;;;;31.25;15.53;;;;;;;8.62;68.58;101127.28;1680673;84;21070;-81
2021/10/11 09:10:55;;;;;;;28.13;15.30;;;;;;;8.72;68.49;101132.11;1689021;84;21076;-80
2021/10/11 09:13:38;;;;;;;37.38;16.52;;;;;;;8.77;68.45;101137.83;1698403;84;22039;-80
2021/10/11 09:16:08;;;;;;;35.10;18.75;;;;;;;8.77;68.38;101129.36;1690839;83;21103;-80
2021/10/11 09:18:36;;;;;;;56.83;36.40;;;;;;;8.79;68.31;101133.23;1681538;84;21582;-80
2021/10/11 09:21:03;;;;;;;36.05;21.57;;;;;;;8.92;68.28;101139.09;1682584;84;21143;-80
2021/10/11 09:23:31;;;;;;;35.90;19.90;;;;;;;8.98;68.19;101135.86;1687025;84;21646;-80
2021/10/11 09:25:59;;;;;;;28.12;16.57;;;;;;;9.02;68.13;101129.28;1693719;84;21182;-81
2021/10/11 09:28:26;;;;;;;31.55;17.32;;;;;;;9.05;68.03;101136.97;1686784;83;21031;-80
2021/10/11 09:30:53;;;;;;;27.30;14.50;;;;;;;9.04;67.92;101136.64;1695177;83;21017;-81
2021/10/11 09:33:22;;;;;;;27.75;16.75;;;;;;;9.10;67.90;101134.73;1688784;84;21082;-80
2021/10/11 09:35:50;;;;;;;36.65;17.40;;;;;;;9.19;67.83;101134.35;1681898;84;21047;-80
2021/10/11 09:38:28;;;;;;;27.60;15.32;;;;;;;9.27;67.76;101131.34;1696033;84;21113;-80
2021/10/11 09:40:57;;;;;;;39.23;19.73;;;;;;;9.27;67.63;101138.48;1688743;84;21572;-81
2021/10/11 09:43:25;;;;;;;60.83;32.40;;;;;;;9.17;67.53;101137.17;1676689;84;21087;-81
2021/10/11 09:45:51;;;;;;;52.27;30.50;;;;;;;9.12;67.48;101132.76;1694150;84;21031;-81
2021/10/11 09:48:18;;;;;;;43.33;21.82;;;;;;;8.99;67.40;101137.55;1699795;83;21046;-81
2021/10/11 09:50:44;;;;;;;39.45;20.77;;;;;;;8.96;67.35;101139.16;1672672;84;21083;-81
2021/10/11 09:53:13;;;;;;;37.93;19.85;;;;;;;8.92;67.31;101131.11;1677116;84;21068;-80
2021/10/11 09:55:41;;;;;;;27.20;16.00;;;;;;;8.97;67.26;101133.69;1675452;84;21111;-80
2021/10/11 09:58:09;;;;;;;32.20;15.93;;;;;;;9.00;67.16;101125.45;1679740;84;21517;-80
2021/10/11 10:00:36;;;;;;;27.17;16.73;;;;;;;8.98;67.09;101118.56;1686220;84;21080;-81
2021/10/11 10:03:02;;;;;;;35.58;18.42;;;;;;;9.03;67.09;101105.69;1685715;84;21699;-81
2021/10/11 10:05:37;;;;;;;34.85;16.87;;;;;;;9.10;67.02;101101.48;1681528;84;21084;-81
2021/10/11 10:08:10;;;;;;;27.48;16.23;;;;;;;9.07;66.92;101104.42;1682845;84;21573;-81
2021/10/11 10:10:36;;;;;;;29.48;16.48;;;;;;;9.12;66.93;101107.48;1682748;84;21056;-81
2021/10/11 10:13:15;;;;;;;36.40;16.73;;;;;;;9.17;66.92;101095.93;1693025;84;21076;-81
2021/10/11 10:15:42;;;;;;;32.03;16.45;;;;;;;9.19;66.89;101091.29;1676658;84;21074;-82
2021/10/11 10:18:10;;;;;;;29.20;16.07;;;;;;;9.26;66.89;101085.73;1703016;83;21026;-81
2021/10/11 10:20:49;;;;;;;26.85;15.63;;;;;;;9.26;66.89;101083.08;1718491;82;21024;-83
2021/10/11 10:23:30;;;;;;;30.97;15.97;;;;;;;9.26;66.85;101088.40;1740720;81;21039;-83
2021/10/11 10:28:50;;;;;;;23.73;14.03;;;;;;;9.41;66.82;101095.44;1820454;77;22334;-82
2021/10/11 10:31:30;;;;;;;23.35;14.68;;;;;;;9.32;66.74;101085.67;1800684;78;21004;-82
2021/10/11 10:33:56;;;;;;;29.95;17.32;;;;;;;9.28;66.66;101079.80;1791451;78;21117;-81
2021/10/11 10:36:25;;;;;;;24.25;15.03;;;;;;;9.40;66.70;101072.45;1789676;80;20951;-82
2021/10/11 10:39:00;;;;;;;23.73;15.10;;;;;;;9.60;66.67;101075.89;1790453;80;20931;-82
2021/10/11 10:41:28;;;;;;;24.70;15.35;;;;;;;9.75;66.59;101066.41;1790522;80;20990;-82
2021/10/11 10:43:54;;;;;;;25.72;16.93;;;;;;;9.87;66.48;101077.22;1784565;80;21498;-82
2021/10/11 10:46:21;;;;;;;30.40;16.07;;;;;;;10.05;66.42;101071.44;1779323;79;21801;-82
2021/10/11 10:48:51;;;;;;;24.92;15.50;;;;;;;10.17;66.35;101064.92;1779536;79;22196;-81
2021/10/11 10:51:18;;;;;;;30.05;14.60;;;;;;;10.23;66.25;101069.67;1734501;82;20939;-82
2021/10/11 10:53:58;;;;;;;22.05;13.58;;;;;;;10.22;66.12;101053.81;1734518;82;21488;-81
2021/10/11 10:56:24;;;;;;;24.55;15.35;;;;;;;10.16;66.05;101051.76;1734878;82;21551;-82
2021/10/11 10:59:03;;;;;;;30.60;17.20;;;;;;;10.21;65.97;101054.30;1734640;82;21098;-82
2021/10/11 11:01:30;;;;;;;24.00;15.37;;;;;;;10.21;65.87;101046.80;1734818;82;21545;-82
2021/10/11 11:03:56;;;;;;;58.75;27.42;;;;;;;10.26;65.87;101046.70;1734197;82;21050;-82
2021/10/11 11:06:30;;;;;;;27.70;16.73;;;;;;;10.32;65.78;101042.58;1734388;82;21105;-82
2021/10/11 11:08:58;;;;;;;41.58;19.23;;;;;;;10.36;65.73;101035.47;1734634;82;21102;-81
2021/10/11 11:11:27;;;;;;;39.40;20.95;;;;;;;10.38;65.66;101033.47;1734114;82;21400;-82
2021/10/11 11:13:59;;;;;;;27.93;17.00;;;;;;;10.45;65.58;101034.53;1733510;82;21062;-81
2021/10/11 11:16:29;;;;;;;37.45;20.62;;;;;;;10.50;65.51;101029.59;1734480;82;21082;-82
2021/10/11 11:18:57;;;;;;;35.15;20.48;;;;;;;10.61;65.46;101025.00;1734786;82;20971;-81